sensor_id;sensor_type;location;lat;lon;timestamp;P1;durP1;ratioP1;P2;durP2;ratioP2
41925;SDS011;27615;51.826;5.692;2022-12-29T00:01:26;4.07;;;2.17;;
41925;SDS011;27615;51.826;5.692;2022-12-29T00:03:51;3.70;;;2.58;;
41925;SDS011;27615;51.826;5.692;2022-12-29T00:06:17;2.97;;;1.90;;
41925;SDS011;27615;51.826;5.692;2022-12-29T00:08:42;2.40;;;1.80;;
41925;SDS011;27615;51.826;5.692;2022-12-29T00:11:08;4.90;;;1.90;;
41925;SDS011;27615;51.826;5.692;2022-12-29T00:13:35;3.83;;;2.10;;
41925;SDS011;27615;51.826;5.692;2022-12-29T00:16:20;2.95;;;1.80;;
41925;SDS011;27615;51.826;5.692;2022-12-29T00:18:46;3.83;;;1.80;;
41925;SDS011;27615;51.826;5.692;2022-12-29T00:21:15;3.10;;;1.83;;
41925;SDS011;27615;51.826;5.692;2022-12-29T00:24:01;4.22;;;2.40;;
41925;SDS011;27615;51.826;5.692;2022-12-29T00:26:46;3.28;;;1.88;;
41925;SDS011;27615;51.826;5.692;2022-12-29T00:29:38;2.63;;;1.90;;
41925;SDS011;27615;51.826;5.692;2022-12-29T00:32:22;3.38;;;1.50;;
41925;SDS011;27615;51.826;5.692;2022-12-29T00:35:08;3.03;;;1.67;;
41925;SDS011;27615;51.826;5.692;2022-12-29T00:37:38;2.63;;;1.42;;
41925;SDS011;27615;51.826;5.692;2022-12-29T00:40:25;2.90;;;1.70;;
41925;SDS011;27615;51.826;5.692;2022-12-29T00:43:09;2.45;;;1.80;;
41925;SDS011;27615;51.826;5.692;2022-12-29T00:45:53;2.70;;;1.52;;
41925;SDS011;27615;51.826;5.692;2022-12-29T00:48:18;3.05;;;1.20;;
41925;SDS011;27615;51.826;5.692;2022-12-29T00:51:04;2.65;;;1.00;;
41925;SDS011;27615;51.826;5.692;2022-12-29T00:53:29;2.40;;;0.90;;
41925;SDS011;27615;51.826;5.692;2022-12-29T00:55:55;1.35;;;0.60;;
41925;SDS011;27615;51.826;5.692;2022-12-29T00:58:20;1.60;;;0.70;;
41925;SDS011;27615;51.826;5.692;2022-12-29T01:00:46;2.20;;;0.60;;
41925;SDS011;27615;51.826;5.692;2022-12-29T01:03:11;1.30;;;0.70;;
41925;SDS011;27615;51.826;5.692;2022-12-29T01:05:37;1.63;;;0.50;;
41925;SDS011;27615;51.826;5.692;2022-12-29T01:08:03;1.40;;;0.50;;
41925;SDS011;27615;51.826;5.692;2022-12-29T01:10:28;1.42;;;0.50;;
41925;SDS011;27615;51.826;5.692;2022-12-29T01:12:54;1.20;;;0.50;;
41925;SDS011;27615;51.826;5.692;2022-12-29T01:15:19;1.17;;;0.40;;
41925;SDS011;27615;51.826;5.692;2022-12-29T01:17:45;1.20;;;0.50;;
41925;SDS011;27615;51.826;5.692;2022-12-29T01:20:11;2.45;;;0.60;;
41925;SDS011;27615;51.826;5.692;2022-12-29T01:22:36;3.08;;;0.60;;
41925;SDS011;27615;51.826;5.692;2022-12-29T01:25:03;1.08;;;0.50;;
41925;SDS011;27615;51.826;5.692;2022-12-29T01:27:29;1.75;;;0.75;;
41925;SDS011;27615;51.826;5.692;2022-12-29T01:29:54;2.03;;;0.60;;
41925;SDS011;27615;51.826;5.692;2022-12-29T01:32:20;2.80;;;1.00;;
41925;SDS011;27615;51.826;5.692;2022-12-29T01:34:45;1.45;;;0.65;;
41925;SDS011;27615;51.826;5.692;2022-12-29T01:37:11;1.70;;;0.80;;
41925;SDS011;27615;51.826;5.692;2022-12-29T01:39:37;1.58;;;0.95;;
41925;SDS011;27615;51.826;5.692;2022-12-29T01:42:02;1.48;;;0.98;;
41925;SDS011;27615;51.826;5.692;2022-12-29T01:47:16;1.40;;;1.10;;
41925;SDS011;27615;51.826;5.692;2022-12-29T01:49:56;2.15;;;1.13;;
41925;SDS011;27615;51.826;5.692;2022-12-29T01:52:24;1.25;;;0.88;;
41925;SDS011;27615;51.826;5.692;2022-12-29T01:54:54;4.30;;;1.10;;
41925;SDS011;27615;51.826;5.692;2022-12-29T01:57:24;1.38;;;1.15;;
41925;SDS011;27615;51.826;5.692;2022-12-29T02:00:08;1.98;;;1.23;;
41925;SDS011;27615;51.826;5.692;2022-12-29T02:02:36;1.55;;;0.90;;
41925;SDS011;27615;51.826;5.692;2022-12-29T02:05:09;1.98;;;1.23;;
41925;SDS011;27615;51.826;5.692;2022-12-29T02:07:40;2.03;;;0.82;;
41925;SDS011;27615;51.826;5.692;2022-12-29T02:10:07;2.22;;;0.70;;
41925;SDS011;27615;51.826;5.692;2022-12-29T02:12:33;1.83;;;0.70;;
41925;SDS011;27615;51.826;5.692;2022-12-29T02:14:59;1.65;;;0.70;;
41925;SDS011;27615;51.826;5.692;2022-12-29T02:17:46;2.10;;;0.70;;
41925;SDS011;27615;51.826;5.692;2022-12-29T02:23:21;2.47;;;1.00;;
41925;SDS011;27615;51.826;5.692;2022-12-29T02:31:37;2.60;;;0.50;;
41925;SDS011;27615;51.826;5.692;2022-12-29T02:37:01;2.65;;;0.63;;
41925;SDS011;27615;51.826;5.692;2022-12-29T02:45:10;2.38;;;0.45;;
41925;SDS011;27615;51.826;5.692;2022-12-29T02:50:13;2.47;;;0.75;;
41925;SDS011;27615;51.826;5.692;2022-12-29T02:52:49;2.67;;;0.63;;
41925;SDS011;27615;51.826;5.692;2022-12-29T02:55:23;0.90;;;0.30;;
41925;SDS011;27615;51.826;5.692;2022-12-29T02:57:48;3.05;;;0.75;;
41925;SDS011;27615;51.826;5.692;2022-12-29T03:00:29;3.15;;;0.50;;
41925;SDS011;27615;51.826;5.692;2022-12-29T03:03:02;2.42;;;0.50;;
41925;SDS011;27615;51.826;5.692;2022-12-29T03:06:12;3.70;;;0.43;;
41925;SDS011;27615;51.826;5.692;2022-12-29T03:08:55;1.65;;;0.40;;
41925;SDS011;27615;51.826;5.692;2022-12-29T03:11:30;2.22;;;0.45;;
41925;SDS011;27615;51.826;5.692;2022-12-29T03:14:26;1.73;;;0.35;;
41925;SDS011;27615;51.826;5.692;2022-12-29T03:17:22;3.28;;;0.60;;
41925;SDS011;27615;51.826;5.692;2022-12-29T03:20:02;3.70;;;0.40;;
41925;SDS011;27615;51.826;5.692;2022-12-29T03:22:34;3.30;;;0.60;;
41925;SDS011;27615;51.826;5.692;2022-12-29T03:25:08;4.10;;;1.30;;
41925;SDS011;27615;51.826;5.692;2022-12-29T03:27:49;2.78;;;0.40;;
41925;SDS011;27615;51.826;5.692;2022-12-29T03:30:20;2.50;;;0.50;;
41925;SDS011;27615;51.826;5.692;2022-12-29T03:32:48;1.80;;;0.30;;
41925;SDS011;27615;51.826;5.692;2022-12-29T03:37:49;1.42;;;0.38;;
41925;SDS011;27615;51.826;5.692;2022-12-29T03:40:24;2.47;;;0.30;;
41925;SDS011;27615;51.826;5.692;2022-12-29T03:42:52;2.33;;;0.47;;
41925;SDS011;27615;51.826;5.692;2022-12-29T03:45:19;1.73;;;0.43;;
41925;SDS011;27615;51.826;5.692;2022-12-29T03:47:44;3.92;;;0.55;;
41925;SDS011;27615;51.826;5.692;2022-12-29T03:50:11;3.88;;;0.40;;
41925;SDS011;27615;51.826;5.692;2022-12-29T03:52:37;1.88;;;0.47;;
41925;SDS011;27615;51.826;5.692;2022-12-29T03:55:03;1.25;;;0.30;;
41925;SDS011;27615;51.826;5.692;2022-12-29T03:57:29;4.93;;;0.45;;
41925;SDS011;27615;51.826;5.692;2022-12-29T03:59:55;1.52;;;0.30;;
41925;SDS011;27615;51.826;5.692;2022-12-29T04:02:20;1.95;;;1.08;;
41925;SDS011;27615;51.826;5.692;2022-12-29T04:04:46;3.80;;;0.50;;
41925;SDS011;27615;51.826;5.692;2022-12-29T04:07:11;2.13;;;0.40;;
41925;SDS011;27615;51.826;5.692;2022-12-29T04:09:37;1.58;;;0.45;;
41925;SDS011;27615;51.826;5.692;2022-12-29T04:12:02;3.85;;;0.55;;
41925;SDS011;27615;51.826;5.692;2022-12-29T04:14:28;1.30;;;0.40;;
41925;SDS011;27615;51.826;5.692;2022-12-29T04:16:53;1.17;;;0.30;;
41925;SDS011;27615;51.826;5.692;2022-12-29T04:19:19;2.28;;;0.50;;
41925;SDS011;27615;51.826;5.692;2022-12-29T04:21:44;3.90;;;0.60;;
41925;SDS011;27615;51.826;5.692;2022-12-29T04:24:10;3.88;;;0.50;;
41925;SDS011;27615;51.826;5.692;2022-12-29T04:26:36;2.78;;;0.50;;
41925;SDS011;27615;51.826;5.692;2022-12-29T04:29:01;3.70;;;0.47;;
41925;SDS011;27615;51.826;5.692;2022-12-29T04:31:27;4.03;;;0.85;;
41925;SDS011;27615;51.826;5.692;2022-12-29T04:33:52;3.17;;;0.43;;
41925;SDS011;27615;51.826;5.692;2022-12-29T04:36:18;3.72;;;0.50;;
41925;SDS011;27615;51.826;5.692;2022-12-29T04:38:43;1.92;;;0.70;;
41925;SDS011;27615;51.826;5.692;2022-12-29T04:41:09;6.47;;;0.80;;
41925;SDS011;27615;51.826;5.692;2022-12-29T04:43:34;2.88;;;0.30;;
41925;SDS011;27615;51.826;5.692;2022-12-29T04:46:00;4.40;;;0.88;;
41925;SDS011;27615;51.826;5.692;2022-12-29T04:48:25;7.55;;;0.70;;
41925;SDS011;27615;51.826;5.692;2022-12-29T04:50:51;5.03;;;0.63;;
41925;SDS011;27615;51.826;5.692;2022-12-29T04:53:17;3.95;;;0.80;;
41925;SDS011;27615;51.826;5.692;2022-12-29T04:55:42;4.57;;;0.50;;
41925;SDS011;27615;51.826;5.692;2022-12-29T04:58:08;3.15;;;0.52;;
41925;SDS011;27615;51.826;5.692;2022-12-29T05:00:33;0.98;;;0.40;;
41925;SDS011;27615;51.826;5.692;2022-12-29T05:02:59;4.75;;;0.80;;
41925;SDS011;27615;51.826;5.692;2022-12-29T05:05:26;2.92;;;0.40;;
41925;SDS011;27615;51.826;5.692;2022-12-29T05:07:51;3.10;;;0.80;;
41925;SDS011;27615;51.826;5.692;2022-12-29T05:10:17;3.30;;;1.10;;
41925;SDS011;27615;51.826;5.692;2022-12-29T05:12:42;2.63;;;0.50;;
41925;SDS011;27615;51.826;5.692;2022-12-29T05:15:08;4.68;;;0.60;;
41925;SDS011;27615;51.826;5.692;2022-12-29T05:17:35;4.22;;;0.68;;
41925;SDS011;27615;51.826;5.692;2022-12-29T05:20:01;2.65;;;0.55;;
41925;SDS011;27615;51.826;5.692;2022-12-29T05:22:28;2.05;;;0.50;;
41925;SDS011;27615;51.826;5.692;2022-12-29T05:24:53;3.35;;;0.70;;
41925;SDS011;27615;51.826;5.692;2022-12-29T05:27:19;4.47;;;0.70;;
41925;SDS011;27615;51.826;5.692;2022-12-29T05:29:44;7.10;;;1.70;;
41925;SDS011;27615;51.826;5.692;2022-12-29T05:32:10;4.60;;;0.65;;
41925;SDS011;27615;51.826;5.692;2022-12-29T05:34:35;4.60;;;1.50;;
41925;SDS011;27615;51.826;5.692;2022-12-29T05:37:01;4.93;;;0.70;;
41925;SDS011;27615;51.826;5.692;2022-12-29T05:39:27;7.57;;;0.90;;
41925;SDS011;27615;51.826;5.692;2022-12-29T05:41:53;6.20;;;1.08;;
41925;SDS011;27615;51.826;5.692;2022-12-29T05:44:18;3.72;;;0.90;;
41925;SDS011;27615;51.826;5.692;2022-12-29T05:46:44;4.68;;;0.80;;
41925;SDS011;27615;51.826;5.692;2022-12-29T05:49:09;4.15;;;0.70;;
41925;SDS011;27615;51.826;5.692;2022-12-29T05:51:35;9.52;;;1.73;;
41925;SDS011;27615;51.826;5.692;2022-12-29T05:54:01;9.77;;;1.00;;
41925;SDS011;27615;51.826;5.692;2022-12-29T05:56:26;6.20;;;2.05;;
41925;SDS011;27615;51.826;5.692;2022-12-29T05:58:52;8.60;;;0.95;;
41925;SDS011;27615;51.826;5.692;2022-12-29T06:01:17;6.40;;;1.05;;
41925;SDS011;27615;51.826;5.692;2022-12-29T06:03:43;6.57;;;0.57;;
41925;SDS011;27615;51.826;5.692;2022-12-29T06:06:09;9.88;;;1.10;;
41925;SDS011;27615;51.826;5.692;2022-12-29T06:08:35;9.02;;;0.88;;
41925;SDS011;27615;51.826;5.692;2022-12-29T06:11:00;7.20;;;0.98;;
41925;SDS011;27615;51.826;5.692;2022-12-29T06:13:26;5.28;;;0.93;;
41925;SDS011;27615;51.826;5.692;2022-12-29T06:15:52;8.55;;;0.93;;
41925;SDS011;27615;51.826;5.692;2022-12-29T06:18:18;5.40;;;0.90;;
41925;SDS011;27615;51.826;5.692;2022-12-29T06:20:43;9.80;;;0.95;;
41925;SDS011;27615;51.826;5.692;2022-12-29T06:23:09;7.75;;;0.93;;
41925;SDS011;27615;51.826;5.692;2022-12-29T06:25:34;5.97;;;0.82;;
41925;SDS011;27615;51.826;5.692;2022-12-29T06:28:00;8.43;;;0.98;;
41925;SDS011;27615;51.826;5.692;2022-12-29T06:30:27;8.88;;;0.70;;
41925;SDS011;27615;51.826;5.692;2022-12-29T06:32:52;7.55;;;0.75;;
41925;SDS011;27615;51.826;5.692;2022-12-29T06:35:19;8.90;;;1.85;;
41925;SDS011;27615;51.826;5.692;2022-12-29T06:37:45;8.20;;;1.13;;
41925;SDS011;27615;51.826;5.692;2022-12-29T06:40:10;4.95;;;1.05;;
41925;SDS011;27615;51.826;5.692;2022-12-29T06:42:36;4.07;;;0.60;;
41925;SDS011;27615;51.826;5.692;2022-12-29T06:45:02;5.07;;;0.65;;
41925;SDS011;27615;51.826;5.692;2022-12-29T06:47:28;2.88;;;0.50;;
41925;SDS011;27615;51.826;5.692;2022-12-29T06:49:54;5.15;;;0.60;;
41925;SDS011;27615;51.826;5.692;2022-12-29T06:52:20;4.32;;;0.70;;
41925;SDS011;27615;51.826;5.692;2022-12-29T06:54:45;3.67;;;0.80;;
41925;SDS011;27615;51.826;5.692;2022-12-29T06:57:11;5.80;;;1.00;;
41925;SDS011;27615;51.826;5.692;2022-12-29T06:59:36;3.53;;;0.70;;
41925;SDS011;27615;51.826;5.692;2022-12-29T07:02:02;2.30;;;0.50;;
41925;SDS011;27615;51.826;5.692;2022-12-29T07:04:27;8.50;;;0.82;;
41925;SDS011;27615;51.826;5.692;2022-12-29T07:06:53;5.63;;;0.52;;
41925;SDS011;27615;51.826;5.692;2022-12-29T07:09:19;6.13;;;1.77;;
41925;SDS011;27615;51.826;5.692;2022-12-29T07:11:44;7.15;;;0.75;;
41925;SDS011;27615;51.826;5.692;2022-12-29T07:14:10;4.18;;;0.70;;
41925;SDS011;27615;51.826;5.692;2022-12-29T07:16:36;4.93;;;0.82;;
41925;SDS011;27615;51.826;5.692;2022-12-29T07:19:02;3.58;;;0.50;;
41925;SDS011;27615;51.826;5.692;2022-12-29T07:21:27;4.15;;;0.80;;
41925;SDS011;27615;51.826;5.692;2022-12-29T07:23:53;5.43;;;1.08;;
41925;SDS011;27615;51.826;5.692;2022-12-29T07:26:19;3.75;;;0.75;;
41925;SDS011;27615;51.826;5.692;2022-12-29T07:28:45;4.53;;;0.60;;
41925;SDS011;27615;51.826;5.692;2022-12-29T07:31:14;2.53;;;0.50;;
41925;SDS011;27615;51.826;5.692;2022-12-29T07:33:44;6.80;;;1.00;;
41925;SDS011;27615;51.826;5.692;2022-12-29T07:36:10;6.72;;;1.10;;
41925;SDS011;27615;51.826;5.692;2022-12-29T07:38:37;7.38;;;1.02;;
41925;SDS011;27615;51.826;5.692;2022-12-29T07:41:03;8.55;;;1.15;;
41925;SDS011;27615;51.826;5.692;2022-12-29T07:43:29;5.40;;;1.00;;
41925;SDS011;27615;51.826;5.692;2022-12-29T07:45:55;4.88;;;0.70;;
41925;SDS011;27615;51.826;5.692;2022-12-29T07:48:20;9.77;;;1.15;;
41925;SDS011;27615;51.826;5.692;2022-12-29T07:50:46;7.63;;;1.13;;
41925;SDS011;27615;51.826;5.692;2022-12-29T07:53:12;6.47;;;1.10;;
41925;SDS011;27615;51.826;5.692;2022-12-29T07:55:38;7.63;;;1.00;;
41925;SDS011;27615;51.826;5.692;2022-12-29T07:58:03;7.47;;;1.30;;
41925;SDS011;27615;51.826;5.692;2022-12-29T08:00:29;6.05;;;0.65;;
41925;SDS011;27615;51.826;5.692;2022-12-29T08:02:54;6.53;;;0.90;;
41925;SDS011;27615;51.826;5.692;2022-12-29T08:05:20;9.30;;;0.90;;
41925;SDS011;27615;51.826;5.692;2022-12-29T08:07:46;6.82;;;0.80;;
41925;SDS011;27615;51.826;5.692;2022-12-29T08:10:12;9.00;;;1.23;;
41925;SDS011;27615;51.826;5.692;2022-12-29T08:12:39;3.58;;;0.85;;
41925;SDS011;27615;51.826;5.692;2022-12-29T08:15:06;5.60;;;1.00;;
41925;SDS011;27615;51.826;5.692;2022-12-29T08:17:33;7.40;;;1.30;;
41925;SDS011;27615;51.826;5.692;2022-12-29T08:19:58;7.07;;;0.80;;
41925;SDS011;27615;51.826;5.692;2022-12-29T08:22:24;6.65;;;1.20;;
41925;SDS011;27615;51.826;5.692;2022-12-29T08:24:50;8.15;;;1.70;;
41925;SDS011;27615;51.826;5.692;2022-12-29T08:27:16;6.70;;;0.90;;
41925;SDS011;27615;51.826;5.692;2022-12-29T08:29:42;7.57;;;1.00;;
41925;SDS011;27615;51.826;5.692;2022-12-29T08:32:07;6.50;;;1.33;;
41925;SDS011;27615;51.826;5.692;2022-12-29T08:34:33;8.65;;;1.10;;
41925;SDS011;27615;51.826;5.692;2022-12-29T08:36:58;6.40;;;1.02;;
41925;SDS011;27615;51.826;5.692;2022-12-29T08:39:24;7.50;;;1.10;;
41925;SDS011;27615;51.826;5.692;2022-12-29T08:41:49;5.72;;;1.35;;
41925;SDS011;27615;51.826;5.692;2022-12-29T08:44:15;6.45;;;1.92;;
41925;SDS011;27615;51.826;5.692;2022-12-29T08:46:41;6.47;;;1.02;;
41925;SDS011;27615;51.826;5.692;2022-12-29T08:49:06;7.38;;;1.20;;
41925;SDS011;27615;51.826;5.692;2022-12-29T08:51:32;10.52;;;1.38;;
41925;SDS011;27615;51.826;5.692;2022-12-29T08:53:58;10.88;;;1.88;;
41925;SDS011;27615;51.826;5.692;2022-12-29T08:56:24;10.73;;;1.73;;
41925;SDS011;27615;51.826;5.692;2022-12-29T08:58:51;7.53;;;1.35;;
41925;SDS011;27615;51.826;5.692;2022-12-29T09:01:17;10.45;;;1.55;;
41925;SDS011;27615;51.826;5.692;2022-12-29T09:03:42;10.43;;;1.42;;
41925;SDS011;27615;51.826;5.692;2022-12-29T09:06:08;6.55;;;0.90;;
41925;SDS011;27615;51.826;5.692;2022-12-29T09:08:34;7.07;;;1.33;;
41925;SDS011;27615;51.826;5.692;2022-12-29T09:11:07;8.90;;;0.90;;
41925;SDS011;27615;51.826;5.692;2022-12-29T09:13:38;7.13;;;0.90;;
41925;SDS011;27615;51.826;5.692;2022-12-29T09:16:04;10.60;;;1.38;;
41925;SDS011;27615;51.826;5.692;2022-12-29T09:18:30;9.52;;;1.17;;
41925;SDS011;27615;51.826;5.692;2022-12-29T09:20:59;9.27;;;1.27;;
41925;SDS011;27615;51.826;5.692;2022-12-29T09:23:27;7.40;;;1.63;;
41925;SDS011;27615;51.826;5.692;2022-12-29T09:25:53;8.35;;;1.13;;
41925;SDS011;27615;51.826;5.692;2022-12-29T09:28:19;6.45;;;1.48;;
41925;SDS011;27615;51.826;5.692;2022-12-29T09:30:45;6.80;;;1.08;;
41925;SDS011;27615;51.826;5.692;2022-12-29T09:33:11;9.00;;;1.67;;
41925;SDS011;27615;51.826;5.692;2022-12-29T09:35:37;8.80;;;1.27;;
41925;SDS011;27615;51.826;5.692;2022-12-29T09:38:07;6.55;;;0.90;;
41925;SDS011;27615;51.826;5.692;2022-12-29T09:40:32;8.60;;;1.60;;
41925;SDS011;27615;51.826;5.692;2022-12-29T09:45:36;8.90;;;1.40;;
41925;SDS011;27615;51.826;5.692;2022-12-29T09:48:20;4.80;;;0.85;;
41925;SDS011;27615;51.826;5.692;2022-12-29T09:50:57;6.00;;;0.85;;
41925;SDS011;27615;51.826;5.692;2022-12-29T09:56:00;10.57;;;1.15;;
41925;SDS011;27615;51.826;5.692;2022-12-29T09:58:31;8.90;;;1.33;;
41925;SDS011;27615;51.826;5.692;2022-12-29T10:01:08;10.98;;;1.15;;
41925;SDS011;27615;51.826;5.692;2022-12-29T10:03:50;12.75;;;1.50;;
41925;SDS011;27615;51.826;5.692;2022-12-29T10:09:02;8.23;;;1.10;;
41925;SDS011;27615;51.826;5.692;2022-12-29T10:11:35;7.97;;;1.45;;
41925;SDS011;27615;51.826;5.692;2022-12-29T10:19:34;9.63;;;0.98;;
41925;SDS011;27615;51.826;5.692;2022-12-29T10:22:22;5.93;;;1.20;;
41925;SDS011;27615;51.826;5.692;2022-12-29T10:25:08;10.43;;;1.30;;
41925;SDS011;27615;51.826;5.692;2022-12-29T10:27:41;8.00;;;1.02;;
41925;SDS011;27615;51.826;5.692;2022-12-29T10:30:11;7.47;;;0.90;;
41925;SDS011;27615;51.826;5.692;2022-12-29T10:32:39;8.48;;;1.20;;
